createdAt,value
2018-11-14T00:00:30.949Z,9.64
2018-11-14T00:03:00.761Z,9.62
2018-11-14T00:05:29.266Z,9.63
2018-11-14T00:07:57.813Z,9.62
2018-11-14T00:10:26.221Z,9.62
2018-11-14T00:12:54.718Z,9.64
2018-11-14T00:15:24.765Z,9.64
2018-11-14T00:17:53.529Z,9.64
2018-11-14T00:20:22.005Z,9.61
2018-11-14T00:22:51.426Z,9.58
2018-11-14T00:25:20.273Z,9.57
2018-11-14T00:27:48.762Z,9.55
2018-11-14T00:30:19.441Z,9.55
2018-11-14T00:32:47.564Z,9.55
2018-11-14T00:35:16.006Z,9.53
2018-11-14T00:37:45.036Z,9.54
2018-11-14T00:40:14.727Z,9.52
2018-11-14T00:42:44.402Z,9.50
2018-11-14T00:45:14.845Z,9.48
2018-11-14T00:47:44.751Z,9.48
2018-11-14T00:50:14.284Z,9.49
2018-11-14T00:52:43.427Z,9.50
2018-11-14T00:57:53.145Z,9.50
2018-11-14T01:00:22.845Z,9.50
2018-11-14T01:02:51.284Z,9.47
2018-11-14T01:05:20.245Z,9.47
2018-11-14T01:07:48.814Z,9.47
2018-11-14T01:10:19.689Z,9.48
2018-11-14T01:12:48.640Z,9.46
2018-11-14T01:15:18.573Z,9.45
2018-11-14T01:17:46.970Z,9.46
2018-11-14T01:20:16.847Z,9.47
2018-11-14T01:22:45.832Z,9.46
2018-11-14T01:25:15.255Z,9.44
2018-11-14T01:27:44.980Z,9.44
2018-11-14T01:30:17.027Z,9.44
2018-11-14T01:32:46.413Z,9.43
2018-11-14T01:35:15.497Z,9.43
2018-11-14T01:37:43.957Z,9.43
2018-11-14T01:40:16.422Z,9.41
2018-11-14T01:45:21.657Z,9.40
2018-11-14T01:50:25.063Z,9.39
2018-11-14T01:52:53.869Z,9.39
2018-11-14T01:55:22.304Z,9.39
2018-11-14T01:57:51.025Z,9.38
2018-11-14T02:00:21.102Z,9.36
2018-11-14T02:02:49.572Z,9.35
2018-11-14T02:05:18.029Z,9.34
2018-11-14T02:07:46.450Z,9.32
2018-11-14T02:10:16.692Z,9.31
2018-11-14T02:12:45.501Z,9.30
2018-11-14T02:15:23.757Z,9.28
2018-11-14T02:17:52.676Z,9.27
2018-11-14T02:20:21.124Z,9.25
2018-11-14T02:22:49.875Z,9.24
2018-11-14T02:25:18.493Z,9.24
2018-11-14T02:27:47.071Z,9.24
2018-11-14T02:30:18.785Z,9.22
2018-11-14T02:32:47.214Z,9.22
2018-11-14T02:35:15.657Z,9.21
2018-11-14T02:37:44.844Z,9.22
2018-11-14T02:40:14.907Z,9.19
2018-11-14T02:42:47.175Z,9.18
2018-11-14T02:45:16.229Z,9.16
2018-11-14T02:47:44.604Z,9.14
2018-11-14T02:50:14.901Z,9.14
2018-11-14T02:52:43.358Z,9.14
2018-11-14T02:55:13.381Z,9.10
2018-11-14T02:57:42.108Z,9.10
2018-11-14T03:00:15.166Z,9.11
2018-11-14T03:02:44.023Z,9.09
2018-11-14T03:05:13.132Z,9.10
2018-11-14T03:07:41.547Z,9.09
2018-11-14T03:10:12.208Z,9.09
2018-11-14T03:12:41.038Z,9.07
2018-11-14T03:17:46.828Z,9.02
2018-11-14T03:20:16.873Z,9.02
2018-11-14T03:22:45.289Z,9.02
2018-11-14T03:25:14.384Z,9.01
2018-11-14T03:27:43.012Z,8.99
2018-11-14T03:30:17.110Z,8.97
2018-11-14T03:32:45.892Z,8.97
2018-11-14T03:35:15.009Z,8.95
2018-11-14T03:37:43.470Z,8.94
2018-11-14T03:40:13.883Z,8.92
2018-11-14T03:42:42.321Z,8.90
2018-11-14T03:45:12.396Z,8.90
2018-11-14T03:47:41.904Z,8.87
2018-11-14T03:50:10.967Z,8.86
2018-11-14T03:52:39.424Z,8.85
2018-11-14T03:55:08.975Z,8.83
2018-11-14T03:57:37.411Z,8.81
2018-11-14T04:00:08.849Z,8.80
2018-11-14T04:02:37.354Z,8.77
2018-11-14T04:05:07.020Z,8.75
2018-11-14T04:07:35.687Z,8.74
2018-11-14T04:10:04.675Z,8.72
2018-11-14T04:12:33.085Z,8.70
2018-11-14T04:15:01.590Z,8.68
2018-11-14T04:17:30.125Z,8.65
2018-11-14T04:19:59.308Z,8.64
2018-11-14T04:22:27.779Z,8.62
2018-11-14T04:24:56.143Z,8.60
2018-11-14T04:27:24.604Z,8.58
2018-11-14T04:29:53.185Z,8.58
2018-11-14T04:32:21.588Z,8.56
2018-11-14T04:34:50.013Z,8.55
2018-11-14T04:37:18.443Z,8.54
2018-11-14T04:39:46.971Z,8.51
2018-11-14T04:42:15.500Z,8.48
2018-11-14T04:44:44.063Z,8.46
2018-11-14T04:49:39.771Z,8.41
2018-11-14T04:52:08.206Z,8.37
2018-11-14T04:54:40.006Z,8.35
2018-11-14T04:57:08.575Z,8.34
2018-11-14T04:59:37.021Z,8.32
2018-11-14T05:02:05.905Z,8.30
2018-11-14T05:04:34.739Z,8.29
2018-11-14T05:07:03.198Z,8.26
2018-11-14T05:09:31.905Z,8.27
2018-11-14T05:12:00.293Z,8.25
2018-11-14T05:14:29.104Z,8.23
2018-11-14T05:16:57.542Z,8.22
2018-11-14T05:19:26.330Z,8.21
2018-11-14T05:21:54.781Z,8.17
2018-11-14T05:24:24.749Z,8.16
2018-11-14T05:26:53.093Z,8.12
2018-11-14T05:29:21.517Z,8.10
2018-11-14T05:31:50.037Z,8.09
2018-11-14T05:34:18.434Z,8.07
2018-11-14T05:36:46.881Z,8.04
2018-11-14T05:39:15.310Z,8.04
2018-11-14T05:41:43.756Z,8.02
2018-11-14T05:44:12.182Z,8.00
2018-11-14T05:46:40.641Z,7.99
2018-11-14T05:49:09.270Z,7.97
2018-11-14T05:51:38.173Z,7.94
2018-11-14T05:54:07.006Z,7.91
2018-11-14T05:56:35.566Z,7.90
2018-11-14T05:59:04.045Z,7.88
2018-11-14T06:01:32.642Z,7.87
2018-11-14T06:04:01.220Z,7.86
2018-11-14T06:06:33.546Z,7.86
2018-11-14T06:09:02.921Z,7.86
2018-11-14T06:11:35.376Z,7.85
2018-11-14T06:14:04.075Z,7.83
2018-11-14T06:19:06.926Z,7.78
2018-11-14T06:21:35.429Z,7.78
2018-11-14T06:24:05.416Z,7.77
2018-11-14T06:26:34.020Z,7.74
2018-11-14T06:29:02.613Z,7.72
2018-11-14T06:31:31.046Z,7.73
2018-11-14T06:33:59.478Z,7.72
2018-11-14T06:36:29.011Z,7.70
2018-11-14T06:38:57.448Z,7.70
2018-11-14T06:41:25.867Z,7.69
2018-11-14T06:43:54.310Z,7.69
2018-11-14T06:46:23.392Z,7.67
2018-11-14T06:48:51.793Z,7.66
2018-11-14T06:51:20.317Z,7.67
2018-11-14T06:53:50.277Z,7.66
2018-11-14T06:56:18.673Z,7.66
2018-11-14T06:58:47.325Z,7.66
2018-11-14T07:01:15.837Z,7.66
2018-11-14T07:03:44.441Z,7.65
2018-11-14T07:06:12.918Z,7.66
2018-11-14T07:08:41.912Z,7.66
2018-11-14T07:11:10.480Z,7.64
2018-11-14T07:13:39.164Z,7.65
2018-11-14T07:16:07.907Z,7.64
2018-11-14T07:21:10.493Z,7.61
2018-11-14T07:23:39.776Z,7.62
2018-11-14T07:26:08.256Z,7.63
2018-11-14T07:28:36.725Z,7.64
2018-11-14T07:31:07.201Z,7.64
2018-11-14T07:33:37.074Z,7.64
2018-11-14T07:36:05.519Z,7.66
2018-11-14T07:38:39.678Z,7.68
2018-11-14T07:41:10.349Z,7.70
2018-11-14T07:43:39.579Z,7.71
2018-11-14T07:46:08.975Z,7.71
2018-11-14T07:48:37.797Z,7.68
2018-11-14T07:51:07.378Z,7.69
2018-11-14T07:53:35.858Z,7.71
2018-11-14T07:56:04.339Z,7.74
2018-11-14T07:58:32.952Z,7.75
2018-11-14T08:01:01.585Z,7.81
2018-11-14T08:03:30.001Z,7.83
2018-11-14T08:05:58.733Z,7.86
2018-11-14T08:08:27.196Z,7.88
2018-11-14T08:10:55.585Z,7.90
2018-11-14T08:13:25.342Z,7.91
2018-11-14T08:15:55.544Z,7.94
2018-11-14T08:18:24.624Z,7.96
2018-11-14T08:20:53.313Z,7.97
2018-11-14T08:23:21.952Z,7.98
2018-11-14T08:25:50.449Z,7.99
2018-11-14T08:28:18.886Z,8.02
2018-11-14T08:30:47.634Z,8.05
2018-11-14T08:33:16.259Z,8.09
2018-11-14T08:35:44.671Z,8.13
2018-11-14T08:38:13.205Z,8.19
2018-11-14T08:40:41.648Z,8.22
2018-11-14T08:43:10.433Z,8.25
2018-11-14T08:45:38.922Z,8.30
2018-11-14T08:48:08.500Z,8.36
2018-11-14T08:50:36.964Z,8.40
2018-11-14T08:53:06.170Z,8.43
2018-11-14T08:55:34.769Z,8.50
2018-11-14T08:58:03.304Z,8.57
2018-11-14T09:00:32.226Z,8.65
2018-11-14T09:03:00.745Z,8.76
2018-11-14T09:05:29.276Z,8.85
2018-11-14T09:07:57.719Z,8.94
2018-11-14T09:10:27.212Z,9.06
2018-11-14T09:12:55.735Z,9.15
2018-11-14T09:15:25.279Z,9.24
2018-11-14T09:17:53.703Z,9.36
2018-11-14T09:20:23.341Z,9.48
2018-11-14T09:22:51.737Z,9.57
2018-11-14T09:25:22.930Z,9.66
2018-11-14T09:27:51.442Z,9.76
2018-11-14T09:30:21.352Z,9.87
2018-11-14T09:32:49.994Z,9.99
2018-11-14T09:35:19.576Z,10.10
2018-11-14T09:37:48.010Z,10.21
2018-11-14T09:40:18.289Z,10.30
2018-11-14T09:42:46.685Z,10.42
2018-11-14T09:45:19.574Z,10.51
2018-11-14T09:47:48.134Z,10.63
2018-11-14T09:50:24.748Z,10.68
2018-11-14T09:52:54.898Z,10.82
2018-11-14T09:55:23.369Z,10.91
2018-11-14T09:57:51.860Z,11.05
2018-11-14T10:00:23.045Z,11.20
2018-11-14T10:02:53.417Z,11.30
2018-11-14T10:05:22.983Z,11.40
2018-11-14T10:07:51.430Z,11.53
2018-11-14T10:10:21.044Z,11.68
2018-11-14T10:12:49.532Z,11.81
2018-11-14T10:15:21.158Z,11.94
2018-11-14T10:17:50.031Z,12.09
2018-11-14T10:20:19.784Z,12.22
2018-11-14T10:22:48.259Z,12.31
2018-11-14T10:25:17.253Z,12.40
2018-11-14T10:27:46.381Z,12.49
2018-11-14T10:30:18.422Z,12.62
2018-11-14T10:32:47.886Z,12.74
2018-11-14T10:35:16.346Z,12.85
2018-11-14T10:37:45.223Z,12.94
2018-11-14T10:40:18.066Z,12.99
2018-11-14T10:42:46.710Z,13.02
2018-11-14T10:45:16.661Z,13.15
2018-11-14T10:47:47.204Z,13.23
2018-11-14T10:50:19.965Z,13.39
2018-11-14T10:52:48.424Z,13.57
2018-11-14T10:55:17.415Z,13.74
2018-11-14T10:57:45.990Z,13.83
2018-11-14T11:00:29.800Z,13.93
2018-11-14T11:05:43.953Z,14.20
2018-11-14T11:08:18.818Z,14.34
2018-11-14T11:10:52.215Z,14.46
2018-11-14T11:13:26.142Z,14.70
2018-11-14T11:15:59.956Z,14.96
2018-11-14T11:18:31.670Z,15.11
2018-11-14T11:21:01.089Z,15.20
2018-11-14T11:23:29.797Z,15.29
2018-11-14T11:25:58.344Z,15.37
2018-11-14T11:28:26.871Z,15.58
2018-11-14T11:30:55.345Z,15.79
2018-11-14T11:33:23.774Z,15.89
2018-11-14T11:35:52.241Z,16.00
2018-11-14T11:38:20.895Z,16.05
2018-11-14T11:40:49.418Z,16.13
2018-11-14T11:43:18.108Z,16.36
2018-11-14T11:45:46.510Z,16.60
2018-11-14T11:50:48.809Z,16.76
2018-11-14T11:53:17.266Z,16.77
2018-11-14T11:55:45.857Z,16.98
2018-11-14T11:58:14.257Z,17.19
2018-11-14T12:00:42.890Z,17.36
2018-11-14T12:03:11.159Z,17.55
2018-11-14T12:05:39.712Z,17.63
2018-11-14T12:08:08.152Z,17.74
2018-11-14T12:10:36.625Z,17.82
2018-11-14T12:13:05.482Z,17.88
2018-11-14T12:15:34.936Z,17.92
2018-11-14T12:18:03.429Z,17.94
2018-11-14T12:20:31.913Z,17.95
2018-11-14T12:23:00.363Z,18.02
2018-11-14T12:25:28.815Z,18.18
2018-11-14T12:27:57.314Z,18.23
2018-11-14T12:30:25.895Z,18.26
2018-11-14T12:32:54.292Z,18.28
2018-11-14T12:35:22.787Z,18.29
2018-11-14T12:37:51.254Z,18.18
2018-11-14T12:40:19.965Z,18.18
2018-11-14T12:42:52.136Z,18.26
2018-11-14T12:45:20.831Z,18.22
2018-11-14T12:47:49.281Z,18.20
2018-11-14T12:50:17.772Z,18.19
2018-11-14T12:52:46.680Z,18.14
2018-11-14T12:57:51.500Z,18.34
2018-11-14T13:00:20.759Z,18.39
2018-11-14T13:02:49.334Z,18.38
2018-11-14T13:05:18.159Z,18.41
2018-11-14T13:07:47.033Z,18.34
2018-11-14T13:12:51.517Z,18.19
2018-11-14T13:15:20.728Z,18.10
2018-11-14T13:17:49.325Z,17.88
2018-11-14T13:20:22.909Z,17.78
2018-11-14T13:22:51.622Z,17.65
2018-11-14T13:25:20.279Z,17.50
2018-11-14T13:27:49.248Z,17.12
2018-11-14T13:30:20.363Z,16.89
2018-11-14T13:32:49.474Z,16.90
2018-11-14T13:35:19.077Z,16.73
2018-11-14T13:37:48.511Z,16.63
2018-11-14T13:40:20.563Z,16.44
2018-11-14T13:42:49.144Z,16.22
2018-11-14T13:45:18.397Z,16.02
2018-11-14T13:47:46.938Z,15.97
2018-11-14T13:50:20.056Z,15.88
2018-11-14T13:52:48.473Z,15.78
2018-11-14T13:55:18.433Z,15.53
2018-11-14T13:57:48.228Z,15.42
2018-11-14T14:00:18.688Z,15.20
2018-11-14T14:02:47.541Z,15.01
2018-11-14T14:05:17.344Z,14.96
2018-11-14T14:07:45.885Z,14.87
2018-11-14T14:10:15.461Z,14.74
2018-11-14T14:12:45.190Z,14.73
2018-11-14T14:15:17.078Z,14.71
2018-11-14T14:17:46.304Z,14.59
2018-11-14T14:20:15.361Z,14.44
2018-11-14T14:22:43.807Z,14.33
2018-11-14T14:25:13.851Z,14.33
2018-11-14T14:27:42.465Z,14.23
2018-11-14T14:32:47.252Z,13.99
2018-11-14T14:35:16.861Z,14.00
2018-11-14T14:37:45.368Z,14.01
2018-11-14T14:40:16.514Z,13.99
2018-11-14T14:42:45.396Z,13.90
2018-11-14T14:45:16.457Z,13.83
2018-11-14T14:47:44.874Z,13.84
2018-11-14T14:50:15.150Z,13.85
2018-11-14T14:52:44.153Z,13.81
2018-11-14T14:55:16.485Z,13.75
2018-11-14T14:57:45.782Z,13.66
2018-11-14T15:00:16.042Z,13.65
2018-11-14T15:02:44.480Z,13.66
2018-11-14T15:05:13.543Z,13.62
2018-11-14T15:07:42.689Z,13.55
2018-11-14T15:10:16.219Z,13.51
2018-11-14T15:15:19.756Z,13.35
2018-11-14T15:17:48.190Z,13.37
2018-11-14T15:20:19.136Z,13.34
2018-11-14T15:22:47.673Z,13.32
2018-11-14T15:25:17.811Z,13.31
2018-11-14T15:27:46.893Z,13.27
2018-11-14T15:30:18.299Z,13.23
2018-11-14T15:32:46.745Z,13.19
2018-11-14T15:35:15.387Z,13.14
2018-11-14T15:37:43.804Z,13.08
2018-11-14T15:40:14.685Z,13.04
2018-11-14T15:42:43.199Z,12.98
2018-11-14T15:45:15.195Z,12.93
2018-11-14T15:47:44.893Z,12.87
2018-11-14T15:50:15.803Z,12.82
2018-11-14T15:52:45.285Z,12.79
2018-11-14T15:55:15.824Z,12.75
2018-11-14T15:57:44.384Z,12.70
2018-11-14T16:00:16.266Z,12.65
2018-11-14T16:02:45.010Z,12.60
2018-11-14T16:05:15.181Z,12.56
2018-11-14T16:07:44.690Z,12.52
2018-11-14T16:10:14.372Z,12.49
2018-11-14T16:12:43.263Z,12.47
2018-11-14T16:15:13.214Z,12.44
2018-11-14T16:17:41.964Z,12.40
2018-11-14T16:20:13.401Z,12.36
2018-11-14T16:22:41.840Z,12.32
2018-11-14T16:25:13.071Z,12.27
2018-11-14T16:27:42.498Z,12.26
2018-11-14T16:30:16.358Z,12.20
2018-11-14T16:32:46.224Z,12.17
2018-11-14T16:35:14.743Z,12.16
2018-11-14T16:37:43.656Z,12.15
2018-11-14T16:40:14.960Z,12.11
2018-11-14T16:42:43.448Z,12.10
2018-11-14T16:45:12.636Z,12.06
2018-11-14T16:47:41.421Z,12.03
2018-11-14T16:50:12.667Z,12.00
2018-11-14T16:52:41.185Z,11.96
2018-11-14T16:55:10.913Z,11.93
2018-11-14T16:57:40.244Z,11.91
2018-11-14T17:00:11.546Z,11.88
2018-11-14T17:02:40.589Z,11.87
2018-11-14T17:05:09.397Z,11.83
2018-11-14T17:07:38.061Z,11.80
2018-11-14T17:10:09.296Z,11.75
2018-11-14T17:12:37.895Z,11.73
2018-11-14T17:15:07.996Z,11.70
2018-11-14T17:17:36.493Z,11.68
2018-11-14T17:20:05.278Z,11.67
2018-11-14T17:22:33.881Z,11.64
2018-11-14T17:25:02.372Z,11.61
2018-11-14T17:27:30.900Z,11.57
2018-11-14T17:29:59.338Z,11.52
2018-11-14T17:32:28.106Z,11.50
2018-11-14T17:34:56.505Z,11.42
2018-11-14T17:37:25.092Z,11.43
2018-11-14T17:39:53.485Z,11.38
2018-11-14T17:42:22.047Z,11.39
2018-11-14T17:44:50.592Z,11.36
2018-11-14T17:47:19.156Z,11.31
2018-11-14T17:49:47.666Z,11.30
2018-11-14T17:52:19.956Z,11.27
2018-11-14T17:54:48.706Z,11.21
2018-11-14T17:57:17.148Z,11.17
2018-11-14T17:59:45.615Z,11.14
2018-11-14T18:02:13.992Z,11.10
2018-11-14T18:04:42.516Z,11.09
2018-11-14T18:07:11.000Z,11.07
2018-11-14T18:09:39.489Z,11.04
2018-11-14T18:12:08.377Z,11.01
2018-11-14T18:14:37.243Z,10.98
2018-11-14T18:17:06.020Z,10.94
2018-11-14T18:19:34.491Z,10.91
2018-11-14T18:22:02.941Z,10.90
2018-11-14T18:24:31.383Z,10.86
2018-11-14T18:29:34.772Z,10.84
2018-11-14T18:32:03.242Z,10.82
2018-11-14T18:34:31.842Z,10.77
2018-11-14T18:37:00.320Z,10.74
2018-11-14T18:39:29.617Z,10.71
2018-11-14T18:41:58.055Z,10.68
2018-11-14T18:44:26.551Z,10.66
2018-11-14T18:46:55.384Z,10.66
2018-11-14T18:49:23.954Z,10.63
2018-11-14T18:51:52.418Z,10.59
2018-11-14T18:54:20.879Z,10.58
2018-11-14T18:56:49.488Z,10.56
2018-11-14T18:59:18.042Z,10.54
2018-11-14T19:01:46.535Z,10.53
2018-11-14T19:04:15.004Z,10.50
2018-11-14T19:06:43.490Z,10.48
2018-11-14T19:09:11.960Z,10.46
2018-11-14T19:11:40.718Z,10.43
2018-11-14T19:14:09.164Z,10.40
2018-11-14T19:19:12.227Z,10.34
2018-11-14T19:21:40.762Z,10.30
2018-11-14T19:24:09.426Z,10.26
2018-11-14T19:26:38.102Z,10.23
2018-11-14T19:29:06.825Z,10.20
2018-11-14T19:31:35.280Z,10.17
2018-11-14T19:34:03.742Z,10.14
2018-11-14T19:36:32.866Z,10.10
2018-11-14T19:39:08.852Z,10.06
2018-11-14T19:41:37.382Z,10.04
2018-11-14T19:44:06.331Z,10.01
2018-11-14T19:46:34.938Z,9.99
2018-11-14T19:51:37.205Z,9.96
2018-11-14T19:54:09.393Z,9.91
2018-11-14T19:56:37.810Z,9.90
2018-11-14T19:59:06.392Z,9.89
2018-11-14T20:01:34.912Z,9.86
2018-11-14T20:04:03.660Z,9.85
2018-11-14T20:06:32.208Z,9.82
2018-11-14T20:09:01.164Z,9.78
2018-11-14T20:11:29.916Z,9.78
2018-11-14T20:13:58.597Z,9.74
2018-11-14T20:16:27.073Z,9.71
2018-11-14T20:18:55.644Z,9.70
2018-11-14T20:21:24.146Z,9.68
2018-11-14T20:23:52.626Z,9.66
2018-11-14T20:26:21.133Z,9.65
2018-11-14T20:28:49.802Z,9.61
2018-11-14T20:31:18.397Z,9.59
2018-11-14T20:33:46.834Z,9.57
2018-11-14T20:36:18.824Z,9.52
2018-11-14T20:38:47.429Z,9.48
2018-11-14T20:41:15.919Z,9.47
2018-11-14T20:43:44.827Z,9.46
2018-11-14T20:46:14.218Z,9.44
2018-11-14T20:48:42.942Z,9.43
2018-11-14T20:51:11.705Z,9.41
2018-11-14T20:53:40.355Z,9.43
2018-11-14T20:56:08.781Z,9.41
2018-11-14T20:58:37.553Z,9.39
2018-11-14T21:01:06.862Z,9.35
2018-11-14T21:03:35.389Z,9.33
2018-11-14T21:06:03.922Z,9.29
2018-11-14T21:11:07.624Z,9.24
2018-11-14T21:13:36.802Z,9.21
2018-11-14T21:16:05.362Z,9.17
2018-11-14T21:18:34.301Z,9.13
2018-11-14T21:21:04.131Z,9.13
2018-11-14T21:23:37.188Z,9.09
2018-11-14T21:26:06.013Z,9.08
2018-11-14T21:28:34.709Z,9.02
2018-11-14T21:31:03.464Z,8.99
2018-11-14T21:33:32.058Z,8.97
2018-11-14T21:36:00.786Z,8.94
2018-11-14T21:38:29.776Z,8.92
2018-11-14T21:40:58.802Z,8.91
2018-11-14T21:43:28.824Z,8.92
2018-11-14T21:45:59.375Z,8.95
2018-11-14T21:48:28.045Z,8.91
2018-11-14T21:50:56.752Z,8.90
2018-11-14T21:53:25.393Z,8.85
2018-11-14T21:55:53.985Z,8.82
2018-11-14T21:58:22.576Z,8.78
2018-11-14T22:00:51.119Z,8.74
2018-11-14T22:03:19.703Z,8.68
2018-11-14T22:05:48.162Z,8.66
2018-11-14T22:08:17.546Z,8.65
2018-11-14T22:10:47.604Z,8.64
2018-11-14T22:13:16.278Z,8.62
2018-11-14T22:15:44.721Z,8.57
2018-11-14T22:18:13.237Z,8.54
2018-11-14T22:20:42.139Z,8.53
2018-11-14T22:23:10.800Z,8.49
2018-11-14T22:25:39.450Z,8.47
2018-11-14T22:28:08.032Z,8.44
2018-11-14T22:30:40.376Z,8.43
2018-11-14T22:33:08.824Z,8.43
2018-11-14T22:35:37.267Z,8.41
2018-11-14T22:38:06.034Z,8.39
2018-11-14T22:43:11.788Z,8.34
2018-11-14T22:45:40.386Z,8.32
2018-11-14T22:48:08.853Z,8.30
2018-11-14T22:50:37.697Z,8.29
2018-11-14T22:53:06.198Z,8.27
2018-11-14T22:55:34.620Z,8.26
2018-11-14T23:00:42.676Z,8.21
2018-11-14T23:03:11.100Z,8.19
2018-11-14T23:05:39.540Z,8.15
2018-11-14T23:08:09.123Z,8.13
2018-11-14T23:10:39.156Z,8.12
2018-11-14T23:13:07.693Z,8.10
2018-11-14T23:15:36.300Z,8.09
2018-11-14T23:18:04.958Z,8.08
2018-11-14T23:20:33.579Z,8.09
2018-11-14T23:23:03.122Z,8.10
2018-11-14T23:25:31.648Z,8.12
2018-11-14T23:28:00.877Z,8.11
2018-11-14T23:30:29.425Z,8.11
2018-11-14T23:32:58.315Z,8.09
2018-11-14T23:35:34.537Z,8.07
2018-11-14T23:38:04.467Z,8.04
2018-11-14T23:40:33.063Z,8.05
